createdAt,value
2023-04-15T00:00:58.670Z,5.80
2023-04-15T00:06:00.831Z,5.63
2023-04-15T00:11:05.982Z,6.70
2023-04-15T00:16:09.079Z,5.90
2023-04-15T00:21:11.198Z,6.17
2023-04-15T00:26:15.597Z,5.33
2023-04-15T00:31:17.843Z,5.70
2023-04-15T00:36:19.927Z,5.80
2023-04-15T00:41:23.140Z,6.13
2023-04-15T00:46:26.827Z,5.97
2023-04-15T00:51:28.975Z,6.33
2023-04-15T00:56:31.457Z,5.97
2023-04-15T01:01:38.685Z,6.13
2023-04-15T01:06:41.252Z,5.83
2023-04-15T01:11:43.448Z,6.17
2023-04-15T01:16:45.817Z,6.23
2023-04-15T01:21:48.061Z,6.47
2023-04-15T01:26:50.813Z,6.47
2023-04-15T01:31:53.968Z,7.13
2023-04-15T01:36:59.060Z,7.30
2023-04-15T01:42:03.675Z,7.20
2023-04-15T01:47:05.852Z,7.07
2023-04-15T01:52:10.954Z,7.03
2023-04-15T01:57:13.545Z,7.57
2023-04-15T02:02:15.647Z,7.63
2023-04-15T02:07:17.801Z,7.53
2023-04-15T02:12:19.980Z,7.43
2023-04-15T02:17:22.112Z,7.93
2023-04-15T02:22:25.388Z,9.37
2023-04-15T02:27:28.825Z,8.80
2023-04-15T02:32:30.907Z,9.07
2023-04-15T02:37:36.552Z,9.83
2023-04-15T02:42:39.658Z,8.80
2023-04-15T02:47:41.828Z,9.03
2023-04-15T02:52:44.990Z,9.70
2023-04-15T02:57:47.264Z,9.40
2023-04-15T03:03:42.226Z,9.13
2023-04-15T03:08:44.102Z,10.03
2023-04-15T03:13:46.056Z,9.53
2023-04-15T03:18:47.895Z,10.00
2023-04-15T03:23:49.896Z,9.23
2023-04-15T03:28:51.716Z,10.10
2023-04-15T03:33:53.666Z,10.33
2023-04-15T03:38:56.907Z,10.87
2023-04-15T03:44:01.592Z,9.07
2023-04-15T03:49:04.216Z,10.03
2023-04-15T03:54:07.908Z,9.97
2023-04-15T03:59:13.821Z,10.13
2023-04-15T04:04:17.088Z,10.43
2023-04-15T04:09:20.090Z,10.67
2023-04-15T04:14:26.717Z,10.87
2023-04-15T04:19:30.163Z,10.83
2023-04-15T04:24:32.506Z,9.87
2023-04-15T04:29:35.817Z,10.57
2023-04-15T04:34:41.077Z,9.77
2023-04-15T04:39:43.304Z,10.70
2023-04-15T04:44:45.338Z,11.33
2023-04-15T04:49:47.435Z,11.70
2023-04-15T04:54:52.652Z,10.27
2023-04-15T04:59:54.699Z,10.20
2023-04-15T05:05:09.844Z,11.63
2023-04-15T05:10:22.320Z,12.67
2023-04-15T05:15:24.762Z,11.37
2023-04-15T05:20:30.149Z,10.90
2023-04-15T05:25:38.646Z,12.40
2023-04-15T05:30:46.398Z,12.00
2023-04-15T05:35:48.524Z,12.27
2023-04-15T05:40:51.381Z,10.83
2023-04-15T05:45:53.552Z,11.33
2023-04-15T05:50:57.115Z,11.87
2023-04-15T05:55:59.233Z,11.60
2023-04-15T06:01:04.286Z,12.33
2023-04-15T06:06:07.500Z,11.20
2023-04-15T06:11:11.923Z,12.67
2023-04-15T06:16:13.909Z,11.80
2023-04-15T06:21:18.559Z,12.40
2023-04-15T06:26:22.647Z,13.10
2023-04-15T06:31:25.285Z,13.93
2023-04-15T06:36:27.995Z,14.03
2023-04-15T06:41:29.822Z,12.70
2023-04-15T06:46:37.869Z,13.93
2023-04-15T06:51:39.970Z,13.30
2023-04-15T06:56:42.254Z,13.10
2023-04-15T07:01:44.490Z,14.67
2023-04-15T07:06:48.760Z,14.00
2023-04-15T07:11:52.621Z,14.17
2023-04-15T07:16:56.761Z,15.20
2023-04-15T07:21:58.907Z,14.70
2023-04-15T07:27:01.890Z,13.57
2023-04-15T07:32:05.036Z,14.10
2023-04-15T07:37:08.345Z,12.97
2023-04-15T07:42:16.321Z,12.93
2023-04-15T07:47:24.062Z,13.43
2023-04-15T07:52:28.540Z,12.97
2023-04-15T07:57:30.848Z,12.30
2023-04-15T08:02:33.019Z,13.33
2023-04-15T08:07:35.272Z,13.77
2023-04-15T08:12:50.095Z,15.30
2023-04-15T08:17:54.580Z,14.70
2023-04-15T08:23:02.268Z,16.43
2023-04-15T08:28:08.188Z,17.40
2023-04-15T08:33:17.603Z,16.47
2023-04-15T08:38:21.270Z,17.67
2023-04-15T08:43:28.790Z,19.53
2023-04-15T08:48:35.957Z,16.47
2023-04-15T08:53:38.554Z,17.77
2023-04-15T08:58:40.453Z,14.43
2023-04-15T09:03:47.059Z,15.63
2023-04-15T09:08:50.668Z,15.03
2023-04-15T09:13:53.468Z,11.63
2023-04-15T09:18:55.766Z,12.13
2023-04-15T09:24:01.226Z,10.37
2023-04-15T09:29:07.919Z,10.57
2023-04-15T09:34:10.167Z,10.07
2023-04-15T09:39:14.654Z,9.00
2023-04-15T09:44:24.140Z,9.00
2023-04-15T09:49:28.951Z,8.70
2023-04-15T09:54:38.248Z,7.50
2023-04-15T10:05:00.197Z,7.23
2023-04-15T10:10:08.446Z,13.37
2023-04-15T10:15:23.323Z,6.30
2023-04-15T10:20:29.467Z,6.70
2023-04-15T10:25:41.828Z,5.20
2023-04-15T10:30:52.277Z,4.77
2023-04-15T10:36:00.444Z,5.43
2023-04-15T10:41:15.437Z,5.37
2023-04-15T10:46:20.938Z,5.43
2023-04-15T10:51:33.986Z,5.33
2023-04-15T10:56:36.782Z,4.60
2023-04-15T11:02:01.825Z,4.50
2023-04-15T11:07:07.535Z,4.57
2023-04-15T11:12:24.210Z,6.37
2023-04-15T11:17:32.621Z,5.83
2023-04-15T11:22:34.632Z,5.90
2023-04-15T11:27:36.454Z,6.57
2023-04-15T11:32:42.768Z,6.77
2023-04-15T11:37:58.402Z,7.20
2023-04-15T11:43:10.447Z,8.03
2023-04-15T11:48:13.901Z,7.37
2023-04-15T11:53:18.999Z,9.03
2023-04-15T11:58:25.435Z,8.07
2023-04-15T12:03:30.164Z,7.87
2023-04-15T12:09:00.240Z,6.80
2023-04-15T12:14:05.533Z,7.00
2023-04-15T12:19:19.626Z,6.20
2023-04-15T12:24:23.160Z,6.00
2023-04-15T12:29:35.869Z,6.33
2023-04-15T12:34:45.733Z,5.93
2023-04-15T12:39:57.528Z,4.83
2023-04-15T12:44:59.609Z,4.60
2023-04-15T12:50:11.867Z,4.87
2023-04-15T12:55:16.788Z,4.57
2023-04-15T13:00:22.598Z,4.83
2023-04-15T13:05:40.783Z,3.77
2023-04-15T13:10:52.803Z,3.80
2023-04-15T13:15:54.866Z,3.93
2023-04-15T13:21:08.485Z,3.60
2023-04-15T13:26:16.016Z,3.87
2023-04-15T13:31:18.559Z,3.87
2023-04-15T13:36:20.635Z,4.07
2023-04-15T13:41:22.674Z,4.33
2023-04-15T13:46:27.883Z,3.50
2023-04-15T13:51:30.005Z,4.63
2023-04-15T13:56:32.655Z,4.53
2023-04-15T14:01:35.858Z,3.67
2023-04-15T14:06:37.791Z,4.20
2023-04-15T14:12:00.172Z,3.40
2023-04-15T14:17:06.721Z,5.37
2023-04-15T14:22:19.588Z,3.27
2023-04-15T14:27:21.749Z,4.73
2023-04-15T14:32:26.102Z,4.20
2023-04-15T14:37:32.698Z,4.43
2023-04-15T14:42:34.608Z,5.37
2023-04-15T14:47:41.045Z,6.00
2023-04-15T14:57:58.856Z,6.63
2023-04-15T15:03:00.796Z,7.20
2023-04-15T15:08:06.185Z,7.63
2023-04-15T15:13:09.546Z,9.60
2023-04-15T15:18:14.179Z,11.97
2023-04-15T15:23:18.173Z,11.17
2023-04-15T15:28:21.728Z,9.93
2023-04-15T15:33:23.721Z,9.27
2023-04-15T15:38:26.286Z,10.17
2023-04-15T15:43:31.128Z,11.97
2023-04-15T15:48:33.042Z,14.73
2023-04-15T15:53:35.414Z,13.53
2023-04-15T15:58:40.905Z,12.63
2023-04-15T16:03:43.026Z,11.83
2023-04-15T16:08:47.707Z,11.67
2023-04-15T16:13:49.823Z,12.67
2023-04-15T16:18:51.827Z,11.07
2023-04-15T16:23:54.158Z,11.67
2023-04-15T16:28:56.244Z,12.63
2023-04-15T16:33:58.547Z,14.10
2023-04-15T16:39:00.483Z,14.40
2023-04-15T16:44:09.449Z,15.00
2023-04-15T16:49:12.205Z,17.17
2023-04-15T16:54:14.815Z,14.80
2023-04-15T16:59:16.812Z,15.67
2023-04-15T17:04:18.850Z,15.27
2023-04-15T17:09:23.536Z,13.07
2023-04-15T17:14:28.051Z,13.63
2023-04-15T17:19:30.014Z,12.23
2023-04-15T17:24:35.506Z,12.90
2023-04-15T17:29:37.562Z,12.50
2023-04-15T17:34:50.172Z,11.77
2023-04-15T17:39:57.760Z,11.30
2023-04-15T17:45:02.598Z,11.73
2023-04-15T17:50:05.054Z,12.33
2023-04-15T17:55:07.564Z,12.20
2023-04-15T18:00:15.321Z,10.70
2023-04-15T18:05:40.259Z,10.00
2023-04-15T18:10:46.379Z,11.63
2023-04-15T18:15:49.526Z,11.40
2023-04-15T18:21:06.748Z,11.37
2023-04-15T18:26:18.988Z,12.77
2023-04-15T18:31:50.210Z,13.00
2023-04-15T18:43:36.698Z,12.40
2023-04-15T18:48:53.823Z,12.93
2023-04-15T18:53:56.273Z,15.93
2023-04-15T18:59:09.219Z,14.57
2023-04-15T19:04:24.146Z,15.57
2023-04-15T19:09:30.409Z,15.23
2023-04-15T19:14:32.453Z,14.93
2023-04-15T19:19:39.596Z,14.90
2023-04-15T19:24:44.585Z,14.83
2023-04-15T19:29:46.601Z,17.23
2023-04-15T19:34:49.145Z,18.27
2023-04-15T19:39:56.826Z,16.50
2023-04-15T19:45:17.290Z,18.80
2023-04-15T19:50:34.387Z,17.43
2023-04-15T19:55:39.929Z,16.70
2023-04-15T20:00:43.517Z,17.70
2023-04-15T20:05:48.075Z,27.47
2023-04-15T20:10:50.021Z,19.53
2023-04-15T20:15:52.431Z,18.43
2023-04-15T20:20:54.511Z,21.07
2023-04-15T20:25:56.664Z,20.30
2023-04-15T20:31:00.550Z,19.60
2023-04-15T20:36:02.491Z,20.47
2023-04-15T20:41:04.355Z,24.27
2023-04-15T20:46:17.720Z,23.00
2023-04-15T20:51:22.709Z,23.47
2023-04-15T20:56:24.702Z,24.60
2023-04-15T21:01:26.750Z,25.17
2023-04-15T21:06:28.648Z,25.53
2023-04-15T21:11:53.395Z,26.33
2023-04-15T21:16:54.059Z,25.33
2023-04-15T21:21:56.068Z,26.73
2023-04-15T21:27:00.890Z,24.43
2023-04-15T21:32:03.314Z,27.23
2023-04-15T21:37:05.574Z,28.20
2023-04-15T21:42:07.824Z,28.60
2023-04-15T21:47:15.485Z,28.00
2023-04-15T21:52:17.655Z,29.67
2023-04-15T21:57:19.542Z,28.77
2023-04-15T22:02:21.670Z,30.80
2023-04-15T22:07:23.853Z,29.13
2023-04-15T22:12:28.291Z,30.67
2023-04-15T22:17:30.807Z,32.27
2023-04-15T22:22:43.960Z,29.53
2023-04-15T22:27:46.284Z,29.73
2023-04-15T22:32:48.084Z,31.20
2023-04-15T22:37:53.007Z,29.97
2023-04-15T22:42:54.733Z,31.63
2023-04-15T22:47:56.790Z,30.57
2023-04-15T22:52:58.630Z,31.03
2023-04-15T22:58:00.471Z,29.20
2023-04-15T23:03:02.572Z,28.93
2023-04-15T23:08:04.431Z,28.37
2023-04-15T23:13:06.171Z,28.03
2023-04-15T23:18:08.251Z,29.83
2023-04-15T23:23:10.292Z,28.03
2023-04-15T23:28:12.682Z,29.33
2023-04-15T23:33:14.550Z,30.10
2023-04-15T23:38:16.518Z,28.57
2023-04-15T23:43:19.643Z,29.73
2023-04-15T23:48:24.571Z,29.57
2023-04-15T23:53:26.374Z,31.00
2023-04-15T23:58:28.380Z,27.90
